Time;durP1;ratioP1;P1;durP2;ratioP2;P2;SDS_P1;SDS_P2;PMS_P1;PMS_P2;Temp;Humidity;BMP_temperature;BMP_pressure;BME280_temperature;BME280_humidity;BME280_pressure;Samples;Min_cycle;Max_cycle;Signal;HPM_P1;HPM_P2
2022/06/02 00:00:14;;;;;;;15.05;11.90;;;9.90;86.60;;;;;;5033222;28;20048;-75
2022/06/02 00:03:06;;;;;;;18.85;13.55;;;9.70;86.60;;;;;;5033173;28;20095;-73
2022/06/02 00:05:53;;;;;;;14.73;12.45;;;9.70;86.60;;;;;;5033415;28;20041;-75
2022/06/02 00:08:43;;;;;;;14.82;12.05;;;9.70;86.70;;;;;;5016814;28;20366;-75
2022/06/02 00:11:39;;;;;;;15.40;12.15;;;9.60;86.60;;;;;;5033550;28;20385;-75
2022/06/02 00:14:17;;;;;;;13.05;10.32;;;9.60;86.70;;;;;;5033080;28;20516;-74
2022/06/02 00:16:49;;;;;;;11.63;10.05;;;9.50;86.80;;;;;;5016892;28;20139;-76
2022/06/02 00:19:27;;;;;;;12.60;9.68;;;9.50;86.80;;;;;;5033333;28;20045;-74
2022/06/02 00:22:03;;;;;;;11.20;9.75;;;9.20;87.30;;;;;;5033175;28;20072;-73
2022/06/02 00:24:39;;;;;;;11.77;10.07;;;9.10;87.50;;;;;;5033023;28;20127;-74
2022/06/02 00:27:24;;;;;;;10.60;9.35;;;9.10;87.40;;;;;;5032797;28;20052;-76
2022/06/02 00:29:58;;;;;;;12.10;10.88;;;9.00;87.10;;;;;;5033051;28;20103;-74
2022/06/02 00:32:39;;;;;;;11.70;9.60;;;9.00;87.40;;;;;;5031972;28;20570;-74
2022/06/02 00:35:14;;;;;;;12.27;10.60;;;8.90;87.40;;;;;;5033105;28;20397;-73
2022/06/02 00:38:13;;;;;;;11.50;10.05;;;8.90;87.30;;;;;;5032764;28;20038;-73
2022/06/02 00:40:39;;;;;;;12.48;10.85;;;8.80;87.90;;;;;;5024462;28;20053;-75
2022/06/02 00:43:29;;;;;;;12.93;11.02;;;8.80;87.80;;;;;;5016297;28;20049;-75
2022/06/02 00:46:17;;;;;;;12.60;11.00;;;8.70;88.10;;;;;;5032686;28;20045;-78
2022/06/02 00:49:09;;;;;;;12.35;11.10;;;8.70;88.10;;;;;;5031825;28;20045;-75
2022/06/02 00:51:40;;;;;;;12.63;11.27;;;8.60;88.20;;;;;;5032605;28;20049;-75
2022/06/02 00:57:32;;;;;;;12.48;11.20;;;8.60;88.30;;;;;;5032334;28;20137;-74
2022/06/02 01:00:20;;;;;;;15.63;12.23;;;8.60;88.30;;;;;;5032083;28;20045;-74
2022/06/02 01:02:51;;;;;;;13.18;11.68;;;8.60;88.10;;;;;;5032016;28;20064;-77
2022/06/02 01:05:35;;;;;;;12.18;10.98;;;8.70;88.20;;;;;;5031577;28;20049;-73
2022/06/02 01:08:22;;;;;;;14.43;10.93;;;8.60;88.20;;;;;;5032130;28;20045;-77
2022/06/02 01:11:10;;;;;;;11.77;10.48;;;8.60;88.30;;;;;;5032314;28;20099;-75
2022/06/02 01:13:49;;;;;;;14.27;11.02;;;8.70;88.30;;;;;;5032319;28;20436;-78
2022/06/02 01:16:21;;;;;;;14.10;11.43;;;8.70;88.20;;;;;;5032203;28;20049;-75
2022/06/02 01:19:14;;;;;;;12.52;10.65;;;8.70;88.00;;;;;;5031697;28;20076;-75
2022/06/02 01:22:10;;;;;;;11.50;10.30;;;8.70;88.10;;;;;;5015605;28;20042;-73
2022/06/02 01:24:44;;;;;;;13.95;10.80;;;8.70;88.20;;;;;;5015592;28;20053;-74
2022/06/02 01:27:18;;;;;;;13.65;10.38;;;8.60;88.10;;;;;;5031837;28;20049;-75
2022/06/02 01:29:46;;;;;;;14.23;11.25;;;8.70;88.10;;;;;;5032225;28;20445;-76
2022/06/02 01:32:18;;;;;;;15.77;11.25;;;8.70;88.10;;;;;;5031989;28;20083;-77
2022/06/02 01:35:14;;;;;;;13.75;11.07;;;8.70;88.00;;;;;;5032022;28;20041;-73
2022/06/02 01:37:52;;;;;;;14.57;11.70;;;8.70;88.00;;;;;;5031916;28;20080;-74
2022/06/02 01:40:46;;;;;;;13.32;9.68;;;8.70;88.10;;;;;;5032072;28;20068;-72
2022/06/02 01:43:29;;;;;;;13.88;10.02;;;8.70;88.00;;;;;;5031960;28;20524;-74
2022/06/02 01:46:06;;;;;;;16.60;10.20;;;8.80;87.90;;;;;;5031948;28;20519;-73
2022/06/02 01:49:13;;;;;;;11.32;8.60;;;8.80;87.80;;;;;;5031909;28;20048;-75
2022/06/02 01:52:12;;;;;;;12.07;9.65;;;8.80;87.80;;;;;;5032031;28;20076;-74
2022/06/02 01:54:56;;;;;;;11.38;8.60;;;8.90;87.80;;;;;;5031934;28;20488;-74
2022/06/02 01:57:47;;;;;;;13.70;9.75;;;8.90;87.70;;;;;;5031768;28;20558;-74
2022/06/02 02:00:20;;;;;;;12.32;8.70;;;8.90;87.70;;;;;;5032015;28;20374;-75
2022/06/02 02:03:24;;;;;;;10.13;8.82;;;9.00;87.70;;;;;;5031644;28;20532;-74
2022/06/02 02:06:20;;;;;;;9.10;7.38;;;9.00;87.60;;;;;;5031781;28;20067;-74
2022/06/02 02:08:53;;;;;;;8.68;7.68;;;9.00;87.50;;;;;;5031830;28;20057;-73
2022/06/02 02:11:48;;;;;;;9.48;8.48;;;8.90;87.50;;;;;;5031734;28;20501;-75
2022/06/02 02:14:43;;;;;;;12.15;9.13;;;8.80;87.60;;;;;;5031911;28;20045;-75
2022/06/02 02:17:40;;;;;;;10.90;9.02;;;8.80;87.60;;;;;;5018870;28;20038;-74
2022/06/02 02:20:20;;;;;;;9.43;8.18;;;8.70;87.60;;;;;;5034927;28;20041;-74
2022/06/02 02:22:59;;;;;;;10.23;8.65;;;8.60;87.70;;;;;;5035176;28;20041;-73
2022/06/02 02:25:44;;;;;;;9.80;8.80;;;8.50;87.70;;;;;;5035445;28;20046;-74
2022/06/02 02:28:46;;;;;;;11.75;8.80;;;8.50;87.80;;;;;;5035159;28;20128;-77
2022/06/02 02:31:18;;;;;;;11.30;8.45;;;8.40;87.80;;;;;;5035120;28;20060;-76
2022/06/02 02:34:02;;;;;;;9.68;8.40;;;8.40;88.00;;;;;;5035085;28;20172;-76
2022/06/02 02:36:33;;;;;;;9.35;8.43;;;8.30;88.20;;;;;;5035119;28;20048;-75
2022/06/02 02:39:12;;;;;;;10.93;9.40;;;8.30;88.20;;;;;;5035095;28;20056;-74
2022/06/02 02:41:58;;;;;;;11.55;8.95;;;8.20;88.10;;;;;;5035161;28;20042;-76
2022/06/02 02:44:31;;;;;;;10.30;8.65;;;8.30;88.00;;;;;;5017858;28;20099;-77
2022/06/02 02:46:57;;;;;;;11.77;9.13;;;8.20;88.40;;;;;;5034641;28;20037;-75
2022/06/02 02:49:37;;;;;;;10.02;9.00;;;8.20;88.60;;;;;;5034985;28;20128;-76
2022/06/02 02:52:18;;;;;;;9.63;8.38;;;8.20;88.50;;;;;;5034642;28;20128;-73
2022/06/02 02:55:05;;;;;;;11.65;9.25;;;8.10;88.30;;;;;;5018162;28;20045;-76
2022/06/02 02:57:48;;;;;;;9.43;8.35;;;8.10;88.30;;;;;;5034767;28;20069;-74
2022/06/02 03:00:22;;;;;;;12.40;8.73;;;8.20;88.30;;;;;;5018352;28;20413;-74
2022/06/02 03:03:09;;;;;;;10.82;9.20;;;8.10;88.50;;;;;;5018056;28;20050;-76
2022/06/02 03:05:59;;;;;;;10.38;8.85;;;8.20;88.50;;;;;;5034319;28;20493;-73
2022/06/02 03:08:47;;;;;;;12.73;8.48;;;8.20;88.50;;;;;;5034471;28;20481;-75
2022/06/02 03:11:31;;;;;;;9.80;8.90;;;8.20;88.50;;;;;;5034438;28;20437;-76
2022/06/02 03:14:07;;;;;;;10.47;8.17;;;8.20;88.50;;;;;;5034005;28;20398;-75
2022/06/02 03:16:37;;;;;;;12.85;9.02;;;8.20;88.60;;;;;;5033911;28;20037;-75
2022/06/02 03:19:38;;;;;;;10.70;8.98;;;8.20;88.70;;;;;;5033845;28;20056;-74
2022/06/02 03:22:13;;;;;;;11.20;8.55;;;8.20;88.60;;;;;;4958472;28;20474;-75
2022/06/02 03:24:53;;;;;;;10.02;9.02;;;8.20;88.80;;;;;;5023129;28;20509;-74
2022/06/02 03:27:34;;;;;;;11.77;8.98;;;8.30;88.60;;;;;;5033547;28;20462;-76
2022/06/02 03:30:06;;;;;;;13.18;10.13;;;8.30;88.70;;;;;;5034343;28;20049;-74
2022/06/02 03:33:18;;;;;;;10.32;9.30;;;8.30;88.70;;;;;;5034258;28;20398;-74
2022/06/02 03:35:43;;;;;;;10.82;9.57;;;8.30;88.50;;;;;;4987520;28;20060;-72
2022/06/02 03:38:18;;;;;;;12.52;9.57;;;8.30;88.50;;;;;;5017415;28;20049;-74
2022/06/02 03:41:01;;;;;;;11.20;9.75;;;8.30;88.50;;;;;;5033816;28;20486;-74
2022/06/02 03:43:40;;;;;;;13.75;9.75;;;8.30;88.60;;;;;;5033803;28;20053;-76
2022/06/02 03:46:39;;;;;;;10.18;9.18;;;8.30;88.60;;;;;;5033673;28;20077;-74
2022/06/02 03:49:32;;;;;;;11.88;9.95;;;8.30;88.60;;;;;;5033711;28;20054;-75
2022/06/02 03:52:35;;;;;;;13.98;10.77;;;8.20;89.00;;;;;;5033559;28;20049;-74
2022/06/02 03:55:28;;;;;;;12.75;10.00;;;8.30;88.90;;;;;;5033451;28;20056;-75
2022/06/02 03:58:31;;;;;;;13.27;10.30;;;8.20;88.90;;;;;;5033203;28;20560;-73
2022/06/02 04:01:01;;;;;;;12.50;9.50;;;8.20;88.90;;;;;;5033466;28;20512;-76
2022/06/02 04:03:54;;;;;;;11.32;9.50;;;8.20;88.80;;;;;;5016391;28;20180;-75
2022/06/02 04:06:47;;;;;;;12.30;10.18;;;8.20;88.90;;;;;;5016703;28;20041;-77
2022/06/02 04:09:16;;;;;;;11.60;9.00;;;8.20;88.90;;;;;;5016719;28;20038;-75
2022/06/02 04:15:12;;;;;;;10.38;9.05;;;8.20;89.20;;;;;;5033168;28;20520;-75
2022/06/02 04:17:51;;;;;;;12.20;8.70;;;8.30;88.80;;;;;;5033238;28;20045;-73
2022/06/02 04:20:44;;;;;;;10.43;8.70;;;8.40;89.00;;;;;;5033178;28;20037;-74
2022/06/02 04:23:22;;;;;;;10.40;8.20;;;8.40;89.00;;;;;;5033314;28;20378;-77
2022/06/02 04:25:51;;;;;;;9.60;7.45;;;8.50;88.80;;;;;;5016503;28;20037;-73
2022/06/02 04:28:54;;;;;;;9.15;7.70;;;8.60;88.70;;;;;;5032941;28;20083;-74
2022/06/02 04:31:53;;;;;;;8.27;7.07;;;8.70;88.90;;;;;;5032670;28;20037;-76
2022/06/02 04:34:39;;;;;;;8.25;7.28;;;8.80;88.70;;;;;;5032853;28;20512;-76
2022/06/02 04:37:19;;;;;;;9.57;6.47;;;8.80;88.60;;;;;;5032738;28;20049;-73
2022/06/02 04:40:12;;;;;;;9.10;7.22;;;8.90;88.50;;;;;;5031928;28;20048;-73
2022/06/02 04:42:52;;;;;;;9.15;6.55;;;9.00;88.50;;;;;;5016262;28;20473;-75
2022/06/02 04:45:38;;;;;;;8.55;6.20;;;9.10;88.40;;;;;;5032199;28;20099;-75
2022/06/02 04:48:24;;;;;;;8.98;6.93;;;9.10;88.30;;;;;;5032352;28;20049;-73
2022/06/02 04:51:20;;;;;;;6.63;5.88;;;9.30;88.30;;;;;;5015996;28;20051;-72
2022/06/02 04:54:02;;;;;;;10.48;7.00;;;9.40;88.10;;;;;;5032301;28;20060;-75
2022/06/02 04:56:44;;;;;;;8.98;6.47;;;9.50;88.00;;;;;;5032567;28;20389;-75
2022/06/02 04:59:38;;;;;;;5.78;4.93;;;9.50;87.90;;;;;;5032523;28;20116;-74
2022/06/02 05:02:25;;;;;;;8.98;5.93;;;9.60;87.80;;;;;;5025258;28;20472;-73
2022/06/02 05:05:06;;;;;;;7.45;4.68;;;9.70;87.70;;;;;;5019077;28;20552;-76
2022/06/02 05:07:49;;;;;;;8.55;5.28;;;9.80;87.50;;;;;;5035331;28;20041;-73
2022/06/02 05:10:40;;;;;;;8.95;4.20;;;9.90;87.50;;;;;;5035609;28;20056;-72
2022/06/02 05:13:15;;;;;;;3.80;3.22;;;10.00;87.30;;;;;;5015145;28;20499;-74
2022/06/02 05:15:53;;;;;;;6.88;4.57;;;10.10;87.20;;;;;;5035813;28;20397;-74
2022/06/02 05:18:49;;;;;;;5.80;3.70;;;10.20;87.00;;;;;;5035380;28;20039;-75
2022/06/02 05:21:33;;;;;;;4.32;3.90;;;10.30;86.80;;;;;;5035617;28;20072;-73
2022/06/02 05:24:32;;;;;;;3.65;3.00;;;10.40;86.70;;;;;;5035446;28;20507;-74
2022/06/02 05:27:29;;;;;;;4.88;3.30;;;10.60;86.50;;;;;;5035469;28;20393;-74
2022/06/02 05:30:15;;;;;;;3.65;3.28;;;10.70;86.20;;;;;;5035308;28;20049;-75
2022/06/02 05:33:12;;;;;;;4.13;3.20;;;10.80;86.10;;;;;;5035248;28;20131;-74
2022/06/02 05:35:57;;;;;;;5.25;2.70;;;10.90;86.00;;;;;;5035062;28;20041;-73
2022/06/02 05:38:43;;;;;;;3.15;2.65;;;11.00;85.90;;;;;;5035068;28;20033;-73
2022/06/02 05:41:29;;;;;;;2.60;2.40;;;11.10;85.40;;;;;;5035465;28;20562;-72
2022/06/02 05:44:00;;;;;;;3.25;2.30;;;11.30;84.90;;;;;;5018638;28;20048;-73
2022/06/02 05:46:41;;;;;;;2.70;2.47;;;11.40;84.70;;;;;;5035451;28;20384;-75
2022/06/02 05:49:16;;;;;;;3.55;2.40;;;11.50;84.70;;;;;;5018784;28;20041;-74
2022/06/02 05:52:25;;;;;;;3.85;2.67;;;11.60;84.60;;;;;;5039182;28;20045;-74
2022/06/02 05:55:30;;;;;;;5.45;2.95;;;11.70;84.10;;;;;;5039209;28;20084;-73
2022/06/02 05:58:38;;;;;;;5.43;2.42;;;11.70;84.10;;;;;;5038917;28;20041;-74
2022/06/02 06:01:14;;;;;;;3.60;2.28;;;11.90;83.80;;;;;;5038338;28;20049;-73
2022/06/02 06:03:59;;;;;;;4.15;2.97;;;12.00;83.50;;;;;;5039064;28;20404;-75
2022/06/02 06:06:50;;;;;;;2.65;1.88;;;12.00;83.40;;;;;;5038987;28;20052;-74
2022/06/02 06:09:32;;;;;;;4.18;2.17;;;12.10;82.50;;;;;;5038747;28;20489;-75
2022/06/02 06:12:18;;;;;;;6.18;2.10;;;12.30;82.00;;;;;;5038638;28;20505;-75
2022/06/02 06:15:05;;;;;;;3.03;1.70;;;12.40;82.20;;;;;;5038781;28;20048;-74
2022/06/02 06:18:04;;;;;;;5.07;1.92;;;12.50;81.80;;;;;;5038877;28;20489;-73
2022/06/02 06:20:46;;;;;;;2.80;2.03;;;12.60;81.70;;;;;;5038759;28;20041;-75
2022/06/02 06:23:30;;;;;;;7.10;2.10;;;12.60;81.20;;;;;;5022099;28;20048;-75
2022/06/02 06:26:30;;;;;;;3.80;2.13;;;12.50;80.70;;;;;;5038547;28;20377;-73
2022/06/02 06:29:34;;;;;;;5.68;2.30;;;12.50;81.00;;;;;;5038439;28;20111;-72
2022/06/02 06:32:09;;;;;;;3.85;1.67;;;12.50;81.40;;;;;;5038505;28;20076;-74
2022/06/02 06:35:00;;;;;;;3.15;1.80;;;12.50;81.10;;;;;;5038367;28;20052;-75
2022/06/02 06:37:45;;;;;;;3.28;1.98;;;12.50;80.80;;;;;;5038305;28;20086;-74
2022/06/02 06:40:23;;;;;;;;;;;12.60;79.90;;;;;;5038611;28;20037;-75
2022/06/02 06:43:21;;;;;;;2.88;1.50;;;12.60;79.40;;;;;;5038490;28;19917;-74
2022/06/02 06:46:36;;;;;;;1.83;1.50;;;12.60;78.50;;;;;;5011917;28;20057;-79
2022/06/02 06:49:15;;;;;;;2.45;1.50;;;12.50;78.10;;;;;;5021426;28;20057;-75
2022/06/02 06:52:02;;;;;;;5.45;1.85;;;12.50;78.20;;;;;;5040254;28;20041;-78
2022/06/02 06:55:00;;;;;;;5.53;1.65;;;12.60;77.90;;;;;;5025016;28;20041;-77
2022/06/02 06:57:35;;;;;;;2.83;1.25;;;12.80;77.60;;;;;;5023011;28;20040;-75
2022/06/02 07:00:24;;;;;;;3.67;1.58;;;12.90;77.00;;;;;;5049007;28;20051;-75
2022/06/02 07:02:59;;;;;;;1.90;1.52;;;13.00;76.60;;;;;;5039088;28;20061;-73
2022/06/02 07:05:42;;;;;;;3.40;1.42;;;13.10;76.20;;;;;;5042995;28;20048;-74
2022/06/02 07:08:35;;;;;;;2.40;1.58;;;13.20;76.30;;;;;;5037819;28;20472;-75
2022/06/02 07:14:31;;;;;;;4.18;1.40;;;13.40;75.40;;;;;;5036644;28;20105;-75
2022/06/02 07:16:59;;;;;;;7.72;1.50;;;13.50;74.40;;;;;;5038964;28;20492;-75
2022/06/02 07:19:48;;;;;;;2.67;1.60;;;13.50;74.70;;;;;;5044783;28;20057;-76
2022/06/02 07:23:08;;;;;;;3.33;1.48;;;13.50;74.80;;;;;;5040641;28;20122;-74
2022/06/02 07:26:08;;;;;;;4.72;1.73;;;13.60;74.90;;;;;;4961611;28;20034;-75
2022/06/02 07:28:57;;;;;;;2.72;1.70;;;13.70;74.30;;;;;;5026536;28;20431;-73
2022/06/02 07:31:43;;;;;;;3.20;1.67;;;13.70;74.50;;;;;;5039487;28;20056;-75
2022/06/02 07:34:21;;;;;;;1.63;1.02;;;13.90;74.50;;;;;;5040347;28;20063;-76
2022/06/02 07:37:18;;;;;;;3.72;1.50;;;14.00;74.00;;;;;;5043160;28;20036;-76
2022/06/02 07:40:03;;;;;;;2.78;1.80;;;13.90;73.80;;;;;;5039799;28;20052;-75
2022/06/02 07:42:43;;;;;;;2.90;1.55;;;13.90;74.30;;;;;;5043343;28;20121;-76
2022/06/02 07:45:31;;;;;;;3.00;1.40;;;14.00;74.50;;;;;;5022469;28;20078;-73
2022/06/02 07:48:06;;;;;;;2.95;1.85;;;14.00;72.90;;;;;;5035632;28;20072;-74
2022/06/02 07:50:35;;;;;;;1.95;1.70;;;13.90;73.70;;;;;;5018425;28;20432;-75
2022/06/02 07:53:20;;;;;;;3.05;1.77;;;13.90;73.50;;;;;;5037200;28;20056;-75
2022/06/02 07:56:02;;;;;;;3.60;1.70;;;13.90;73.90;;;;;;5040300;28;20043;-75
2022/06/02 07:58:56;;;;;;;2.30;1.63;;;14.00;74.00;;;;;;5040394;28;20052;-74
2022/06/02 08:01:21;;;;;;;3.85;1.77;;;14.20;73.50;;;;;;5038794;28;20040;-75
2022/06/02 08:04:06;;;;;;;2.90;1.75;;;14.30;72.80;;;;;;5036675;28;20741;-74
2022/06/02 08:06:42;;;;;;;2.22;1.50;;;14.20;72.30;;;;;;5023501;28;20051;-73
2022/06/02 08:09:27;;;;;;;4.75;1.73;;;14.30;72.50;;;;;;5041805;28;20057;-77
2022/06/02 08:12:00;;;;;;;2.53;1.63;;;14.50;72.90;;;;;;5041517;28;20174;-73
2022/06/02 08:14:53;;;;;;;3.72;1.73;;;14.60;72.60;;;;;;5039177;28;20500;-74
2022/06/02 08:17:35;;;;;;;3.60;1.65;;;14.60;71.70;;;;;;5045652;28;20083;-74
2022/06/02 08:20:22;;;;;;;2.88;1.90;;;14.50;72.10;;;;;;5037095;28;20414;-74
2022/06/02 08:22:48;;;;;;;5.00;1.70;;;14.60;72.40;;;;;;5040727;28;20153;-74
2022/06/02 08:25:21;;;;;;;2.50;1.30;;;14.60;72.60;;;;;;5038371;28;20121;-74
2022/06/02 08:28:12;;;;;;;3.25;1.75;;;14.70;72.40;;;;;;5039464;28;20163;-72
2022/06/02 08:30:47;;;;;;;3.70;1.83;;;14.70;72.50;;;;;;5039135;28;20174;-74
2022/06/02 08:33:32;;;;;;;3.08;1.52;;;14.80;72.50;;;;;;5040547;28;20405;-73
2022/06/02 08:36:07;;;;;;;1.83;1.35;;;14.80;71.70;;;;;;5043602;28;20044;-72
2022/06/02 08:39:26;;;;;;;5.38;1.80;;;14.90;70.90;;;;;;5039988;28;20053;-74
2022/06/02 08:42:16;;;;;;;2.22;1.30;;;15.10;71.50;;;;;;5039411;28;21179;-74
2022/06/02 08:44:51;;;;;;;2.78;1.23;;;15.30;70.50;;;;;;5042516;28;20041;-73
2022/06/02 08:47:25;;;;;;;2.60;1.35;;;15.50;70.10;;;;;;5038400;28;20079;-74
2022/06/02 08:50:10;;;;;;;3.25;2.20;;;15.60;70.00;;;;;;5034859;28;20470;-73
2022/06/02 08:52:45;;;;;;;;;;;15.70;69.70;;;;;;5043678;28;20106;-74
2022/06/02 08:55:28;;;;;;;3.63;1.35;;;15.90;69.10;;;;;;5037949;28;19924;-73
2022/06/02 08:58:19;;;;;;;3.30;1.45;;;16.00;68.90;;;;;;5022351;28;20277;-73
2022/06/02 09:00:48;;;;;;;4.93;1.70;;;16.00;68.60;;;;;;5036177;28;20048;-73
2022/06/02 09:03:34;;;;;;;2.67;1.42;;;15.80;67.60;;;;;;5020762;28;21205;-75
2022/06/02 09:06:24;;;;;;;3.88;1.40;;;15.70;68.10;;;;;;5042287;28;20040;-73
2022/06/02 09:09:02;;;;;;;2.80;1.52;;;15.60;68.30;;;;;;5040745;28;20106;-73
2022/06/02 09:11:42;;;;;;;2.20;1.70;;;15.70;67.90;;;;;;5036773;28;20127;-73
2022/06/02 09:14:36;;;;;;;2.38;1.20;;;16.00;67.40;;;;;;5039672;28;20047;-73
2022/06/02 09:17:20;;;;;;;2.47;1.40;;;16.20;67.40;;;;;;5036455;28;20056;-72
2022/06/02 09:20:03;;;;;;;2.45;1.90;;;16.20;67.10;;;;;;5039337;28;20370;-74
2022/06/02 09:22:46;;;;;;;3.17;1.95;;;16.10;67.50;;;;;;5024278;28;20033;-73
2022/06/02 09:25:21;;;;;;;3.85;1.88;;;16.10;68.10;;;;;;5038178;28;20048;-73
2022/06/02 09:27:49;;;;;;;5.22;1.77;;;16.00;68.20;;;;;;5039252;28;20094;-74
2022/06/02 09:30:40;;;;;;;6.25;2.25;;;16.10;68.50;;;;;;5023558;28;20052;-75
2022/06/02 09:33:43;;;;;;;3.38;1.75;;;16.30;68.50;;;;;;5036705;28;20130;-75
2022/06/02 09:36:39;;;;;;;3.05;1.65;;;16.50;67.30;;;;;;5038147;28;20037;-74
2022/06/02 09:39:23;;;;;;;3.92;1.65;;;16.60;66.50;;;;;;5039285;28;20045;-74
2022/06/02 09:41:55;;;;;;;4.20;1.50;;;16.60;66.50;;;;;;5045210;28;20039;-75
2022/06/02 09:44:42;;;;;;;3.28;1.67;;;16.60;66.20;;;;;;5054470;28;20080;-74
2022/06/02 09:47:29;;;;;;;4.65;1.85;;;16.50;65.00;;;;;;5054775;28;20377;-75
2022/06/02 09:50:13;;;;;;;3.47;1.83;;;16.40;65.90;;;;;;5054302;28;20048;-73
2022/06/02 09:52:59;;;;;;;;;;;16.50;66.00;;;;;;5038409;28;20040;-73
2022/06/02 09:55:40;;;;;;;3.28;1.45;;;16.70;65.90;;;;;;5032741;28;19982;-73
2022/06/02 09:58:20;;;;;;;3.63;2.15;;;17.00;64.60;;;;;;5035311;28;20045;-74
2022/06/02 10:00:52;;;;;;;2.15;1.60;;;17.10;65.70;;;;;;5035288;28;20106;-74
2022/06/02 10:03:40;;;;;;;3.35;1.30;;;17.10;65.70;;;;;;5017106;28;20053;-74
2022/06/02 10:06:08;;;;;;;3.58;1.70;;;17.00;65.10;;;;;;5038598;28;20124;-72
2022/06/02 10:08:53;;;;;;;3.85;1.65;;;16.70;66.20;;;;;;5018745;28;20480;-73
2022/06/02 10:11:37;;;;;;;;;;;16.60;65.80;;;;;;5035988;28;20135;-72
2022/06/02 10:14:30;;;;;;;2.45;1.13;;;16.60;65.60;;;;;;5041120;28;19973;-75
2022/06/02 10:17:34;;;;;;;1.80;1.30;;;16.50;65.20;;;;;;5024943;28;20040;-75
2022/06/02 10:20:22;;;;;;;1.90;1.50;;;16.60;65.30;;;;;;5036540;28;20393;-74
2022/06/02 10:22:57;;;;;;;2.92;1.85;;;16.70;64.90;;;;;;5037156;28;20048;-75
2022/06/02 10:25:35;;;;;;;2.70;1.50;;;16.80;65.40;;;;;;5040246;28;20052;-75
2022/06/02 10:28:38;;;;;;;3.72;1.50;;;16.80;65.60;;;;;;5038185;28;20074;-74
2022/06/02 10:31:36;;;;;;;2.60;1.63;;;16.90;65.80;;;;;;5037570;28;20097;-73
2022/06/02 10:34:11;;;;;;;3.55;1.50;;;16.90;65.50;;;;;;5035653;28;20156;-76
2022/06/02 10:37:23;;;;;;;2.97;1.50;;;16.90;65.40;;;;;;5049965;28;20534;-73
2022/06/02 10:39:52;;;;;;;2.92;1.80;;;17.00;64.60;;;;;;5050591;28;20033;-74
2022/06/02 10:42:20;;;;;;;2.03;1.33;;;17.30;64.90;;;;;;5063614;28;20116;-73
2022/06/02 10:45:05;;;;;;;2.28;1.50;;;17.60;64.80;;;;;;5051022;28;20068;-73
2022/06/02 10:47:43;;;;;;;;;;;17.60;63.60;;;;;;5032611;28;20127;-75
2022/06/02 10:50:28;;;;;;;3.13;1.65;;;17.50;63.20;;;;;;5046025;28;19917;-74
2022/06/02 10:53:12;;;;;;;3.97;1.58;;;17.50;62.70;;;;;;5036192;28;20512;-74
2022/06/02 10:55:52;;;;;;;4.32;1.67;;;17.60;62.80;;;;;;5071341;28;20033;-74
2022/06/02 10:58:21;;;;;;;2.78;1.48;;;17.80;61.50;;;;;;5070392;28;20036;-74
2022/06/02 11:01:02;;;;;;;2.53;1.67;;;17.80;62.00;;;;;;5036768;28;20087;-75
2022/06/02 11:03:49;;;;;;;2.00;1.58;;;17.70;61.90;;;;;;5041829;28;20509;-76
2022/06/02 11:06:14;;;;;;;2.22;1.50;;;17.60;61.90;;;;;;5037890;28;20084;-74
2022/06/02 11:09:09;;;;;;;4.00;1.70;;;17.50;61.70;;;;;;5039453;28;20076;-74
2022/06/02 11:11:51;;;;;;;2.50;1.63;;;17.40;61.90;;;;;;5039829;28;20061;-74
2022/06/02 11:14:35;;;;;;;3.72;2.13;;;17.40;61.80;;;;;;5022774;28;20041;-75
2022/06/02 11:17:34;;;;;;;1.50;1.33;;;17.60;61.00;;;;;;5037316;28;20089;-73
2022/06/02 11:20:34;;;;;;;3.03;1.58;;;17.70;61.10;;;;;;5023168;28;20044;-77
2022/06/02 11:23:33;;;;;;;2.13;1.70;;;17.70;61.80;;;;;;5039513;28;20041;-76
2022/06/02 11:26:25;;;;;;;1.98;1.42;;;17.60;62.20;;;;;;5036989;28;20084;-74
2022/06/02 11:29:00;;;;;;;2.40;1.40;;;17.50;63.10;;;;;;5037270;28;20041;-75
2022/06/02 11:32:04;;;;;;;2.33;1.40;;;17.50;63.40;;;;;;5037584;28;20061;-74
2022/06/02 11:34:54;;;;;;;3.30;1.63;;;17.80;62.70;;;;;;4989839;28;20057;-73
2022/06/02 11:37:39;;;;;;;5.85;2.47;;;18.00;61.60;;;;;;4990204;28;20049;-78
2022/06/02 11:40:41;;;;;;;3.95;1.63;;;18.40;61.60;;;;;;5033315;28;20067;-75
2022/06/02 11:43:14;;;;;;;2.78;1.50;;;18.60;60.30;;;;;;5036263;28;20060;-76
2022/06/02 11:45:55;;;;;;;2.45;1.63;;;18.80;60.00;;;;;;5038826;28;20060;-75
2022/06/02 11:48:58;;;;;;;4.53;2.03;;;18.70;59.40;;;;;;5016191;28;20052;-75
2022/06/02 11:52:01;;;;;;;2.00;1.48;;;18.60;58.80;;;;;;5040073;28;20060;-76
2022/06/02 11:55:05;;;;;;;2.78;1.95;;;18.60;59.20;;;;;;5039122;28;20051;-74
2022/06/02 11:58:09;;;;;;;3.95;1.58;;;18.80;57.50;;;;;;5038215;28;20049;-72
2022/06/02 12:00:58;;;;;;;2.38;1.48;;;19.00;57.20;;;;;;5037255;28;20076;-75
2022/06/02 12:03:46;;;;;;;3.17;1.35;;;19.30;57.30;;;;;;5042468;28;20142;-74
2022/06/02 12:06:36;;;;;;;2.17;1.58;;;19.70;57.00;;;;;;5040088;28;20053;-74
2022/06/02 12:09:33;;;;;;;2.10;1.27;;;19.60;56.30;;;;;;5023674;28;20055;-75
2022/06/02 12:12:23;;;;;;;1.55;1.35;;;19.30;56.50;;;;;;5045296;28;20106;-74
2022/06/02 12:15:16;;;;;;;3.25;1.50;;;19.20;57.10;;;;;;5038575;28;20037;-75
2022/06/02 12:17:57;;;;;;;3.17;1.30;;;19.60;58.30;;;;;;5040743;28;20399;-73
2022/06/02 12:20:45;;;;;;;2.63;1.73;;;19.90;55.70;;;;;;5036034;28;20048;-75
2022/06/02 12:23:41;;;;;;;2.80;1.30;;;19.90;56.00;;;;;;5041813;28;20057;-72
2022/06/02 12:26:29;;;;;;;3.25;1.70;;;19.70;55.50;;;;;;5042196;28;20053;-73
2022/06/02 12:29:26;;;;;;;1.52;1.40;;;19.60;56.60;;;;;;5036903;28;20055;-73
2022/06/02 12:32:02;;;;;;;3.53;1.52;;;19.30;57.40;;;;;;5038821;28;20048;-73
2022/06/02 12:34:57;;;;;;;2.42;1.52;;;19.00;57.50;;;;;;5040644;28;20045;-74
2022/06/02 12:37:43;;;;;;;2.80;1.73;;;18.90;57.00;;;;;;5036840;28;20102;-75
2022/06/02 12:40:15;;;;;;;2.58;1.40;;;18.50;58.20;;;;;;5038524;28;20048;-74
2022/06/02 12:43:27;;;;;;;1.42;1.23;;;18.50;60.10;;;;;;5043890;28;20049;-75
2022/06/02 12:46:17;;;;;;;3.47;1.42;;;19.10;60.90;;;;;;5025555;28;20072;-77
2022/06/02 12:49:14;;;;;;;3.30;1.42;;;19.40;58.70;;;;;;5039992;28;20036;-76
2022/06/02 12:51:40;;;;;;;2.72;1.52;;;19.40;57.10;;;;;;5024959;28;20059;-76
2022/06/02 12:54:47;;;;;;;2.20;1.50;;;19.30;57.20;;;;;;5037109;28;20049;-75
2022/06/02 12:57:31;;;;;;;2.88;1.70;;;19.30;55.90;;;;;;5042314;28;20043;-74
2022/06/02 13:00:16;;;;;;;3.17;1.60;;;19.10;56.10;;;;;;5038130;28;20131;-74
2022/06/02 13:03:04;;;;;;;2.00;1.65;;;19.10;57.00;;;;;;5039435;28;20047;-73
2022/06/02 13:06:07;;;;;;;2.60;1.40;;;19.30;58.10;;;;;;5042162;28;20060;-75
2022/06/02 13:09:11;;;;;;;1.88;1.25;;;19.40;58.70;;;;;;5021907;28;20044;-76
2022/06/02 13:12:07;;;;;;;3.03;1.65;;;19.50;56.90;;;;;;5024710;28;20507;-75
2022/06/02 13:14:52;;;;;;;2.92;1.63;;;19.60;57.20;;;;;;5040122;28;20049;-76
2022/06/02 13:17:30;;;;;;;3.13;1.58;;;19.40;56.60;;;;;;5037473;28;20075;-72
2022/06/02 13:20:31;;;;;;;2.67;1.48;;;19.30;57.60;;;;;;5036441;28;21112;-73
2022/06/02 13:23:18;;;;;;;3.83;2.17;;;19.20;58.40;;;;;;4951688;28;20055;-75
2022/06/02 13:25:50;;;;;;;4.00;1.90;;;19.50;58.60;;;;;;5017149;28;20390;-73
2022/06/02 13:28:21;;;;;;;2.17;1.90;;;19.90;58.70;;;;;;5038545;28;20127;-74
2022/06/02 13:30:47;;;;;;;4.03;1.92;;;19.90;59.10;;;;;;5039215;28;20052;-75
2022/06/02 13:33:18;;;;;;;2.83;1.95;;;19.80;58.50;;;;;;5036561;28;20041;-75
2022/06/02 13:36:16;;;;;;;4.25;2.10;;;19.50;57.50;;;;;;5034766;28;20037;-74
2022/06/02 13:38:44;;;;;;;3.10;1.60;;;19.30;58.00;;;;;;5034501;28;20683;-73
2022/06/02 13:41:37;;;;;;;2.55;2.00;;;19.10;59.00;;;;;;5036844;28;20131;-72
2022/06/02 13:44:14;;;;;;;2.35;1.50;;;19.00;59.70;;;;;;5023118;28;20055;-74
2022/06/02 13:47:18;;;;;;;2.58;1.70;;;18.90;59.80;;;;;;5040322;28;20181;-74
2022/06/02 13:49:59;;;;;;;3.08;2.13;;;18.70;59.60;;;;;;5041093;28;20078;-75
2022/06/02 13:53:02;;;;;;;3.10;1.77;;;18.60;60.30;;;;;;5021940;28;20479;-74
2022/06/02 13:59:15;;;;;;;2.83;1.80;;;18.50;61.50;;;;;;5037934;28;20082;-73
2022/06/02 14:01:40;;;;;;;1.70;1.60;;;18.50;61.10;;;;;;5047613;28;20036;-76
2022/06/02 14:04:30;;;;;;;2.00;1.80;;;18.70;61.10;;;;;;5053042;28;20056;-75
2022/06/02 14:07:24;;;;;;;2.05;1.58;;;19.20;60.10;;;;;;5054373;28;20048;-76
2022/06/02 14:10:11;;;;;;;2.53;1.30;;;19.40;59.70;;;;;;5054182;28;20051;-73
2022/06/02 14:12:52;;;;;;;2.85;1.77;;;19.50;58.70;;;;;;5056670;28;20041;-73
2022/06/02 14:15:25;;;;;;;2.63;1.40;;;19.50;58.70;;;;;;5058079;28;20037;-73
2022/06/02 14:18:09;;;;;;;2.65;1.52;;;19.80;57.00;;;;;;5058394;28;20032;-75
2022/06/02 14:20:46;;;;;;;2.05;1.45;;;19.90;55.10;;;;;;5058284;28;20101;-74
2022/06/02 14:23:29;;;;;;;4.50;1.88;;;20.10;56.00;;;;;;5057952;28;20538;-73
2022/06/02 14:26:13;;;;;;;3.25;1.85;;;20.40;56.10;;;;;;5058440;28;20109;-74
2022/06/02 14:29:08;;;;;;;1.98;1.60;;;20.50;55.10;;;;;;5058023;28;20040;-76
2022/06/02 14:32:02;;;;;;;4.25;2.03;;;20.70;55.40;;;;;;5058288;28;20086;-75
2022/06/02 14:34:32;;;;;;;2.70;1.70;;;20.90;54.40;;;;;;5057983;28;20044;-76